Historyczne dane pomiarowe

Dodano dane terminowe – wersja testowa.

Dane z okresu 1951-2019

Wersja bazy: 1.34 [2019-03-16, lista zmian], aktualizacja planowana na 2019-04-15

Dane meteo z obszaru Polski uzyskane na podstawie danych udostępnionych przez Instytut Meteorologii i Gospodarki Wodnej – Państwowy Instytut Badawczy.

 

Wybierz Datę:    

       

TemperaturaWilgotnośćWiatrCiśnienieOpadyŚniegCzas trwania zjawisk
 Stacja t tx tn tng RH VA  wxwx mslp ppp RRR   cm mm wxwxwxwxwxwxwx
2019-07-25 20.0 27.5 15.0--- 1.0 0.3---- 0.0------------
2019-07-24 18.2 22.8 15.2--- 6.7 0.0---- 1.4------------
2019-07-23 16.8 20.7 14.4--- 8.0 1.0---- 11.4------------
2019-07-22 19.1 25.8 13.3--- 3.7 1.0---- 1.3------------
2019-07-21 20.0 28.8 15.0--- 6.0 2.3---- 10.8------------
2019-07-20 19.4 26.8 14.2--- 5.0 1.3---- 2.1------------
2019-07-19 18.0 27.3 8.7--- 3.0 1.0---- 0.0------------
2019-07-18 15.7 22.8 7.2--- 2.0 0.0---- 0.0------------
2019-07-17 16.5 21.3 9.4--- 2.0 2.3---- 0.0------------
2019-07-16 14.9 23.5 6.0--- 0.7 2.7---- 0.0------------
2019-07-15 14.6 21.8 7.2--- 0.0 1.0---- 0.0------------
2019-07-14 15.4 20.1 12.3--- 6.0 1.3---- 2.0------------
2019-07-13 15.4 20.3 11.8--- 5.0 1.7---- 4.1------------
2019-07-12 14.3 23.3 5.9--- 0.7 0.0---- 0.5------------
2019-07-11 12.1 16.8 6.9--- 5.3 0.3---- 2.8------------
2019-07-10 13.8 19.8 7.4--- 5.7 1.7---- 1.5------------
2019-07-09 14.0 19.1 6.4--- 2.7 0.7---- 0.0------------
2019-07-08 15.0 19.3 9.0--- 3.7 2.7---- 0.0------------
2019-07-07 19.6 26.4 14.7--- 4.0 2.7---- 0.0------------
2019-07-06 20.6 28.5 13.5--- 2.3 0.7---- 0.0------------
2019-07-05 16.6 24.0 8.1--- 5.0 1.3---- 0.0------------
2019-07-04 15.6 23.0 6.4--- 0.0 1.0---- 0.0------------
2019-07-03 16.9 22.7 9.9--- 1.0 3.7---- 0.0------------
2019-07-02 23.1 28.7 18.5--- 0.3 2.0---- 0.0------------
2019-07-01 24.3 33.6 15.2--- 2.7 3.0---- 0.0------------
2019-06-30 22.1 32.7 11.3--- 0.0 1.0---- 0.0------------
2019-06-29 18.8 24.9 13.7--- 0.3 1.7---- 0.0------------
2019-06-28 17.4 23.2 14.0--- 2.3 2.3---- 0.0------------
2019-06-27 24.0 28.5 19.2--- 0.0 2.3---- 0.0------------
2019-06-26 24.1 32.6 15.7--- 0.0 1.3---- 0.0------------
2019-06-25 21.8 30.7 14.2--- 0.0 0.0---- 0.0------------
2019-06-24 19.9 23.1 17.7--- 5.7 1.7---- 0.0------------
2019-06-23 18.8 22.1 16.0--- 7.3 0.7---- 0.0------------
2019-06-22 18.8 22.3 15.2--- 3.3 0.7---- 0.0------------
2019-06-21 19.9 26.0 16.1--- 5.3 0.3---- 2.6------------
2019-06-20 19.9 26.3 16.0--- 5.7 0.0---- 8.3------------
2019-06-19 20.2 27.1 15.4--- 4.3 0.0---- 0.3------------
2019-06-18 16.9 24.1 9.4--- 3.3 0.0---- 0.6------------
2019-06-17 17.2 19.3 16.0--- 4.3 2.3---- 0.0------------
2019-06-16 21.8 29.8 16.1--- 2.7 1.0---- 5.9------------
2019-06-15 24.2 32.2 18.3--- 0.0 1.7---- 0.0------------
2019-06-14 23.2 30.8 16.3--- 2.0 0.7---- 4.2------------
2019-06-13 23.0 31.2 14.9--- 0.0 1.7---- 0.0------------
2019-06-12 22.9 30.2 14.4--- 0.3 2.3---- 0.0------------
2019-06-11 23.1 29.1 15.6--- 0.0 3.3---- 0.0------------
2019-06-10 21.9 29.3 13.6--- 0.0 1.0---- 0.0------------
2019-06-09 20.1 25.7 15.5--- 0.3 1.0---- 0.0------------
2019-06-08 20.6 27.9 13.3--- 2.3 2.0---- 0.5------------
2019-06-07 17.3 23.8 11.4--- 4.3 1.0---- 25.5------------
2019-06-06 17.8 23.0 11.3--- 1.3 1.7---- 0.1------------
2019-06-05 18.7 25.0 12.3--- 0.7 2.0---- 0.0------------
2019-06-04 18.7 26.0 11.7--- 2.0 0.3---- 0.4------------
2019-06-03 17.6 25.8 9.4--- 0.3 1.0---- 0.0------------
2019-06-02 17.3 24.1 10.0--- 0.7 1.3---- 0.0------------
2019-06-01 13.9 23.1 5.9--- 3.3 1.0---- 0.0------------
2019-05-31 13.0 19.1 8.5--- 4.0 1.0---- 0.0------------
2019-05-30 9.2 10.5 8.0--- 8.0 2.0---- 14.5------------
2019-05-29 11.9 15.0 9.4--- 8.0 2.3---- 11.3------------
2019-05-28 16.1 20.5 12.7--- 6.7 2.0---- 2.0------------
2019-05-27 16.6 23.6 10.2--- 3.7 2.3---- 0.2------------
71.2 ms

 

Źródłem pochodzenia danych jest Instytut Meteorologii i Gospodarki Wodnej – Państwowy Instytut Badawczy. Dane Instytutu Meteorologii i Gospodarki Wodnej – Państwowego Instytutu Badawczego zostały przetworzone.

Dane źródłowe można odnaleźć na stronie https://dane.imgw.pl